Wednesday, January 17, 2018, 1:08 PM GMT
Back to Local

CWFQ, Frelighsburg

Location: , , Canada Lat: 45.05
Local Time: 1:08 PM GMT (13:08 GMT) Lon: -72.833
Time Zone: GMT Elev: 498 ft

Show me the last for .
Show Decoded

2018-01-17 12:00 METAR CWFQ 171200Z AUTO 12002KT M10/M11 RMK AO1 SOG 21 8009 SLP271 T10981109
                 50002 =
2018-01-17 11:00 METAR CWFQ 171100Z AUTO 00000KT M10/M11 RMK AO1 SOG 21 8003 SLP276 T11021114
                 50002 =
2018-01-17 10:00 METAR CWFQ 171000Z AUTO 35003KT M11/M12 RMK AO1 SOG 21 0003 SLP280 T11071115
                 50002 =
2018-01-17 09:00 METAR CWFQ 170900Z AUTO 28003KT M10/M11 RMK AO1 SOG 21 5001 SLP281 T11001109
                 50002 =
2018-01-17 08:00 METAR CWFQ 170800Z AUTO 21002KT M06/M07 RMK AO1 2PAST HR SOG 21 5005 SLP278
                 P0001 T10631071 50002 =
2018-01-17 07:00 METAR CWFQ 170700Z AUTO 16003KT M07/M08 RMK AO1 SOG 21 8009 SLP276 T10731082 =
2018-01-17 06:00 METAR CWFQ 170600Z AUTO 20002KT M07/M08 RMK AO1 3PAST HR SOG 21 8006 SLP280
                 P0001 T10731083 50003 =
2018-01-17 05:00 METAR CWFQ 170500Z AUTO 17002KT M08/M09 RMK AO1 SOG 20 7004 SLP284 T10811092 =
2018-01-17 04:00 METAR CWFQ 170400Z AUTO 21002KT M07/M08 RMK AO1 SOG 19 6007 SLP284 T10681080 =
2018-01-17 03:00 METAR CWFQ 170300Z AUTO 17002KT M06/M07 RMK AO1 SOG 19 6007 SLP287 T10611073 =
2018-01-17 02:00 METAR CWFQ 170200Z AUTO 17002KT M06/M07 RMK AO1 SOG 20 8006 SLP288 T10611073 =
2018-01-17 01:00 METAR CWFQ 170100Z AUTO 09001KT M07/M09 RMK AO1 SOG 20 8002 SLP293 T10721087 =
2018-01-17 00:00 METAR CWFQ 170000Z AUTO 16001KT M07/M08 RMK AO1 SOG 20 1002 SLP295 T10681083 =
2018-01-16 23:00 METAR CWFQ 162300Z AUTO 15001KT M08/M09 RMK AO1 SOG 20 1005 SLP296 T10771092 =
2018-01-16 22:00 METAR CWFQ 162200Z AUTO 00000KT M08/M10 RMK AO1 SOG 20 2007 SLP297 T10801095 =
2018-01-16 21:00 METAR CWFQ 162100Z AUTO 32001KT M08/M10 RMK AO1 SOG 20 3005 SLP294 T10811103 =
2018-01-16 20:00 METAR CWFQ 162000Z AUTO 34001KT M07/M10 RMK AO1 SOG 20 5003 SLP292 T10691095 =
2018-01-16 19:00 METAR CWFQ 161900Z AUTO 35003KT M08/M11 RMK AO1 SOG 20 6011 SLP290 T10781106 =
2018-01-16 18:00 METAR CWFQ 161800Z AUTO 27002KT M07/M10 RMK AO1 6PAST HR SOG 20 8013 SLP290
                 P0002 T10661103 50008 =
2018-01-16 17:00 METAR CWFQ 161700Z AUTO 29002KT M07/M11 RMK AO1 SOG 20 8006 SLP296 T10741114
                 50002 =
2018-01-16 16:00 METAR CWFQ 161600Z AUTO 20003KT M07/M10 RMK AO1 SOG 20 0000 SLP300 T10711104
                 50002 =
2018-01-16 15:00 METAR CWFQ 161500Z AUTO 19003KT M09/M11 RMK AO1 SOG 20 3001 SLP303 T10871111
                 50002 =
2018-01-16 14:00 METAR CWFQ 161400Z AUTO 16002KT M10/M12 RMK AO1 2PAST HR SOG 20 1002 SLP301
                 P0001 T10971118 50002 =

Support USWX by starting your Amazon purchase here.